Time;durP1;ratioP1;P1;durP2;ratioP2;P2;SDS_P1;SDS_P2;PMS_P1;PMS_P2;Temp;Humidity;BMP_temperature;BMP_pressure;BME280_temperature;BME280_humidity;BME280_pressure;Samples;Min_cycle;Max_cycle;Signal;HPM_P1;HPM_P2
2023/07/21 00:01:02;;;;;;;10.93;5.00;;;;;;;;;;4934887;29;20048;-69
2023/07/21 00:03:28;;;;;;;9.40;4.70;;;;;;;;;;4934258;29;20043;-71
2023/07/21 00:05:54;;;;;;;12.68;4.40;;;;;;;;;;4933617;29;20462;-70
2023/07/21 00:08:21;;;;;;;5.63;4.20;;;;;;;;;;4934045;29;20066;-70
2023/07/21 00:10:47;;;;;;;13.20;4.97;;;;;;;;;;4933471;29;20062;-69
2023/07/21 00:13:13;;;;;;;12.07;5.05;;;;;;;;;;4933970;29;20052;-71
2023/07/21 00:15:39;;;;;;;8.25;4.95;;;;;;;;;;4933952;29;20035;-71
2023/07/21 00:18:05;;;;;;;4.07;3.72;;;;;;;;;;4916646;29;20097;-70
2023/07/21 00:20:32;;;;;;;7.50;4.00;;;;;;;;;;4933526;29;20032;-69
2023/07/21 00:22:59;;;;;;;4.60;4.20;;;;;;;;;;4933576;29;20055;-70
2023/07/21 00:25:26;;;;;;;6.20;4.38;;;;;;;;;;4933618;29;20118;-70
2023/07/21 00:27:52;;;;;;;7.82;4.55;;;;;;;;;;4933426;29;20043;-71
2023/07/21 00:30:21;;;;;;;8.63;4.47;;;;;;;;;;4932361;29;20032;-71
2023/07/21 00:32:47;;;;;;;10.80;4.10;;;;;;;;;;4933210;29;20134;-71
2023/07/21 00:35:13;;;;;;;9.25;3.72;;;;;;;;;;4933465;29;20414;-71
2023/07/21 00:37:39;;;;;;;10.10;4.07;;;;;;;;;;4933269;29;20035;-70
2023/07/21 00:40:09;;;;;;;6.20;5.40;;;;;;;;;;4931879;29;20039;-71
2023/07/21 00:42:38;;;;;;;20.90;14.63;;;;;;;;;;4933258;29;20526;-70
2023/07/21 00:45:06;;;;;;;7.28;6.45;;;;;;;;;;4915690;29;20040;-70
2023/07/21 00:47:34;;;;;;;6.72;4.07;;;;;;;;;;4931935;29;20526;-71
2023/07/21 00:50:00;;;;;;;5.57;4.78;;;;;;;;;;4931871;29;20043;-72
2023/07/21 00:52:29;;;;;;;5.88;4.05;;;;;;;;;;4933133;29;20126;-71
2023/07/21 00:54:55;;;;;;;6.97;4.25;;;;;;;;;;4900024;29;20104;-71
2023/07/21 00:57:22;;;;;;;10.80;4.10;;;;;;;;;;4933369;29;20046;-71
2023/07/21 00:59:48;;;;;;;9.25;4.15;;;;;;;;;;4933067;29;20039;-70
2023/07/21 01:02:14;;;;;;;6.25;3.72;;;;;;;;;;4933097;29;20430;-71
2023/07/21 01:04:40;;;;;;;5.57;4.00;;;;;;;;;;4932009;29;20031;-71
2023/07/21 01:07:08;;;;;;;10.68;4.22;;;;;;;;;;4931568;29;20044;-71
2023/07/21 01:09:37;;;;;;;8.63;4.00;;;;;;;;;;4933322;29;20096;-71
2023/07/21 01:12:04;;;;;;;9.02;4.10;;;;;;;;;;4931653;29;20042;-72
2023/07/21 01:14:31;;;;;;;4.07;3.67;;;;;;;;;;4933571;29;20476;-71
2023/07/21 01:16:58;;;;;;;6.20;3.75;;;;;;;;;;4933097;29;20036;-70
2023/07/21 01:19:24;;;;;;;4.22;3.75;;;;;;;;;;4933234;29;20043;-71
2023/07/21 01:22:01;;;;;;;7.60;3.80;;;;;;;;;;4931725;29;20082;-72
2023/07/21 01:24:32;;;;;;;5.65;4.00;;;;;;;;;;4916836;29;20117;-69
2023/07/21 01:26:59;;;;;;;8.02;3.92;;;;;;;;;;4916335;29;20479;-71
2023/07/21 01:29:25;;;;;;;8.30;4.85;;;;;;;;;;4933276;29;20056;-71
2023/07/21 01:31:51;;;;;;;9.80;3.75;;;;;;;;;;4931840;29;20126;-70
2023/07/21 01:34:17;;;;;;;7.47;4.00;;;;;;;;;;4933057;29;20131;-71
2023/07/21 01:36:43;;;;;;;7.22;4.20;;;;;;;;;;4933130;29;20067;-70
2023/07/21 01:39:09;;;;;;;10.05;4.50;;;;;;;;;;4932614;29;20551;-72
2023/07/21 01:41:35;;;;;;;6.78;4.05;;;;;;;;;;4900014;29;20480;-70
2023/07/21 01:44:01;;;;;;;5.55;3.80;;;;;;;;;;4932567;29;20056;-71
2023/07/21 01:46:27;;;;;;;6.30;4.10;;;;;;;;;;4933019;29;20046;-72
2023/07/21 01:48:53;;;;;;;9.65;4.45;;;;;;;;;;4932519;29;20040;-72
2023/07/21 01:51:20;;;;;;;6.88;4.47;;;;;;;;;;4931433;29;20057;-70
2023/07/21 01:54:02;;;;;;;8.73;4.45;;;;;;;;;;4932606;29;20032;-71
2023/07/21 01:56:30;;;;;;;9.25;4.22;;;;;;;;;;4932593;29;20155;-71
2023/07/21 01:58:58;;;;;;;6.00;4.18;;;;;;;;;;4935316;29;20038;-72
2023/07/21 02:01:23;;;;;;;7.65;3.95;;;;;;;;;;4919848;29;20083;-70
2023/07/21 02:03:49;;;;;;;6.95;4.25;;;;;;;;;;4937441;29;20448;-73
2023/07/21 02:06:15;;;;;;;8.02;4.85;;;;;;;;;;4935083;29;20047;-72
2023/07/21 02:08:42;;;;;;;10.07;4.57;;;;;;;;;;4919091;29;20036;-72
2023/07/21 02:11:08;;;;;;;5.78;4.43;;;;;;;;;;4935891;29;20040;-72
2023/07/21 02:13:56;;;;;;;7.32;4.10;;;;;;;;;;4935504;29;20369;-71
2023/07/21 02:16:22;;;;;;;6.75;4.38;;;;;;;;;;4934938;29;20039;-72
2023/07/21 02:18:48;;;;;;;10.25;4.85;;;;;;;;;;4934817;29;20182;-70
2023/07/21 02:21:14;;;;;;;12.25;5.05;;;;;;;;;;4918421;29;20058;-71
2023/07/21 02:23:41;;;;;;;7.90;4.28;;;;;;;;;;4936110;29;20036;-70
2023/07/21 02:26:07;;;;;;;7.15;3.95;;;;;;;;;;4935310;29;20103;-71
2023/07/21 02:28:33;;;;;;;4.55;3.83;;;;;;;;;;4936248;29;20118;-70
2023/07/21 02:31:03;;;;;;;9.65;3.88;;;;;;;;;;4934456;29;20079;-71
2023/07/21 02:33:32;;;;;;;8.10;4.60;;;;;;;;;;4935747;29;20027;-71
2023/07/21 02:36:00;;;;;;;8.13;3.90;;;;;;;;;;4934134;29;20135;-70
2023/07/21 02:38:26;;;;;;;6.70;4.28;;;;;;;;;;4934470;29;20043;-72
2023/07/21 02:40:53;;;;;;;8.40;3.97;;;;;;;;;;4935211;29;20502;-70
2023/07/21 02:43:19;;;;;;;7.47;4.40;;;;;;;;;;4935686;29;20039;-71
2023/07/21 02:45:52;;;;;;;7.30;4.40;;;;;;;;;;4935780;29;20035;-71
2023/07/21 02:48:18;;;;;;;8.43;4.38;;;;;;;;;;4935993;29;20051;-72
2023/07/21 02:50:51;;;;;;;8.60;4.25;;;;;;;;;;4934669;29;20042;-71
2023/07/21 02:53:18;;;;;;;13.20;4.60;;;;;;;;;;4933924;29;20064;-71
2023/07/21 02:55:47;;;;;;;7.97;4.30;;;;;;;;;;4933825;29;20062;-70
2023/07/21 02:58:13;;;;;;;7.88;4.43;;;;;;;;;;4933634;29;20067;-71
2023/07/21 03:00:39;;;;;;;5.28;4.18;;;;;;;;;;4918275;29;20039;-72
2023/07/21 03:03:17;;;;;;;6.57;4.28;;;;;;;;;;4933965;29;20191;-72
2023/07/21 03:05:47;;;;;;;9.80;4.03;;;;;;;;;;4934264;29;20046;-71
2023/07/21 03:08:14;;;;;;;11.38;4.20;;;;;;;;;;4934608;29;20127;-71
2023/07/21 03:10:40;;;;;;;4.68;4.13;;;;;;;;;;4918205;29;20051;-71
2023/07/21 03:13:07;;;;;;;6.80;3.90;;;;;;;;;;4933352;29;20050;-71
2023/07/21 03:15:36;;;;;;;7.28;4.30;;;;;;;;;;4933718;29;20038;-71
2023/07/21 03:18:08;;;;;;;6.22;3.90;;;;;;;;;;4933434;29;20047;-71
2023/07/21 03:20:59;;;;;;;6.00;4.13;;;;;;;;;;4917479;29;20046;-71
2023/07/21 03:23:25;;;;;;;8.13;3.60;;;;;;;;;;4933553;29;20126;-70
2023/07/21 03:25:51;;;;;;;5.75;3.97;;;;;;;;;;4933509;29;20183;-71
2023/07/21 03:28:21;;;;;;;9.80;4.07;;;;;;;;;;4933276;29;20511;-70
2023/07/21 03:30:59;;;;;;;4.78;4.00;;;;;;;;;;4934803;29;20028;-71
2023/07/21 03:33:25;;;;;;;9.93;3.80;;;;;;;;;;4917401;29;20035;-71
2023/07/21 03:36:06;;;;;;;7.00;3.97;;;;;;;;;;4933168;29;20048;-72
2023/07/21 03:38:36;;;;;;;5.95;4.03;;;;;;;;;;4934680;29;20037;-72
2023/07/21 03:41:02;;;;;;;4.18;3.78;;;;;;;;;;4917666;29;20060;-71
2023/07/21 03:43:32;;;;;;;6.20;3.50;;;;;;;;;;4933227;29;20031;-72
2023/07/21 03:45:58;;;;;;;4.30;3.50;;;;;;;;;;4932984;29;20088;-71
2023/07/21 03:48:26;;;;;;;9.15;4.22;;;;;;;;;;4917392;29;20042;-71
2023/07/21 03:50:57;;;;;;;8.63;4.22;;;;;;;;;;4917074;29;20054;-71
2023/07/21 03:53:24;;;;;;;5.80;3.72;;;;;;;;;;4917390;29;20130;-70
2023/07/21 03:55:50;;;;;;;3.60;3.30;;;;;;;;;;4932698;29;20522;-71
2023/07/21 03:58:15;;;;;;;6.57;3.15;;;;;;;;;;4932430;29;20071;-72
2023/07/21 04:00:45;;;;;;;6.40;3.38;;;;;;;;;;4933903;29;20214;-71
2023/07/21 04:03:11;;;;;;;3.30;3.00;;;;;;;;;;4932387;29;20502;-71
2023/07/21 04:05:37;;;;;;;5.28;3.05;;;;;;;;;;4934169;29;20196;-70
2023/07/21 04:08:03;;;;;;;3.72;3.22;;;;;;;;;;4932285;29;20539;-72
2023/07/21 04:10:30;;;;;;;6.43;3.38;;;;;;;;;;4933869;29;20040;-71
2023/07/21 04:12:56;;;;;;;4.03;3.33;;;;;;;;;;4933873;29;20061;-71
2023/07/21 04:15:23;;;;;;;3.38;3.17;;;;;;;;;;4933635;29;20184;-71
2023/07/21 04:17:49;;;;;;;4.50;3.83;;;;;;;;;;4932529;29;20039;-71
2023/07/21 04:20:15;;;;;;;4.43;3.50;;;;;;;;;;4932880;29;20411;-71
2023/07/21 04:22:41;;;;;;;3.58;3.25;;;;;;;;;;4932189;29;20134;-72
2023/07/21 04:25:07;;;;;;;11.35;3.97;;;;;;;;;;4932059;29;20115;-71
2023/07/21 04:27:35;;;;;;;5.80;3.42;;;;;;;;;;4932284;29;20122;-70
2023/07/21 04:30:02;;;;;;;3.42;3.15;;;;;;;;;;4932133;29;20103;-71
2023/07/21 04:32:31;;;;;;;5.45;3.28;;;;;;;;;;4932290;29;20032;-74
2023/07/21 04:35:00;;;;;;;6.25;3.90;;;;;;;;;;4916061;29;20418;-73
2023/07/21 04:37:27;;;;;;;3.92;3.13;;;;;;;;;;4933462;29;20111;-73
2023/07/21 04:39:54;;;;;;;4.10;3.50;;;;;;;;;;4933681;29;20577;-71
2023/07/21 04:42:21;;;;;;;4.45;3.17;;;;;;;;;;4915908;29;20054;-71
2023/07/21 04:44:49;;;;;;;3.60;3.13;;;;;;;;;;4932047;29;20047;-72
2023/07/21 04:47:15;;;;;;;5.63;3.40;;;;;;;;;;4931720;29;20044;-71
2023/07/21 04:49:50;;;;;;;3.00;2.70;;;;;;;;;;4932058;29;20482;-73
2023/07/21 04:52:17;;;;;;;4.13;3.40;;;;;;;;;;4931687;29;20032;-72
2023/07/21 04:54:44;;;;;;;6.10;3.55;;;;;;;;;;4931886;29;20059;-71
2023/07/21 04:57:11;;;;;;;3.28;2.83;;;;;;;;;;4931541;29;20048;-71
2023/07/21 04:59:37;;;;;;;7.28;3.30;;;;;;;;;;4933069;29;20130;-71
2023/07/21 05:02:03;;;;;;;3.90;3.38;;;;;;;;;;4932740;29;20599;-70
2023/07/21 05:04:29;;;;;;;3.15;2.80;;;;;;;;;;4931965;29;20095;-71
2023/07/21 05:06:55;;;;;;;6.85;3.97;;;;;;;;;;4933045;29;20526;-70
2023/07/21 05:09:21;;;;;;;6.07;2.95;;;;;;;;;;4932803;29;20039;-71
2023/07/21 05:11:48;;;;;;;7.63;3.58;;;;;;;;;;4931546;29;20047;-72
2023/07/21 05:14:32;;;;;;;5.57;4.45;;;;;;;;;;4931732;29;20044;-72
2023/07/21 05:17:08;;;;;;;8.13;3.72;;;;;;;;;;4931371;29;20506;-72
2023/07/21 05:20:00;;;;;;;3.95;3.40;;;;;;;;;;4909973;29;20047;-72
2023/07/21 05:22:46;;;;;;;10.50;3.45;;;;;;;;;;4932778;29;20047;-72
2023/07/21 05:25:23;;;;;;;3.25;2.95;;;;;;;;;;4932645;29;20126;-72
2023/07/21 05:27:49;;;;;;;3.00;2.70;;;;;;;;;;4915812;29;20039;-72
2023/07/21 05:30:16;;;;;;;3.85;3.45;;;;;;;;;;4932532;29;20051;-71
2023/07/21 05:32:49;;;;;;;6.03;3.13;;;;;;;;;;4936823;29;20039;-71
2023/07/21 05:35:22;;;;;;;3.75;3.00;;;;;;;;;;4936762;29;20438;-72
2023/07/21 05:37:52;;;;;;;5.32;3.13;;;;;;;;;;4935902;29;20754;-72
2023/07/21 05:40:19;;;;;;;7.07;3.25;;;;;;;;;;4937017;29;20040;-70
2023/07/21 05:42:48;;;;;;;7.80;3.38;;;;;;;;;;4935393;29;20518;-71
2023/07/21 05:45:15;;;;;;;8.73;3.27;;;;;;;;;;4935078;29;20035;-72
2023/07/21 05:47:43;;;;;;;11.90;3.63;;;;;;;;;;4935221;29;20291;-71
2023/07/21 05:50:09;;;;;;;8.80;3.30;;;;;;;;;;4935001;29;20047;-71
2023/07/21 05:52:40;;;;;;;5.22;3.88;;;;;;;;;;4935109;29;20032;-71
2023/07/21 05:55:13;;;;;;;4.97;3.90;;;;;;;;;;4934542;29;20067;-72
2023/07/21 05:57:39;;;;;;;12.50;4.22;;;;;;;;;;4935091;29;20089;-71
2023/07/21 06:00:06;;;;;;;6.63;3.50;;;;;;;;;;4935974;29;20036;-72
2023/07/21 06:02:39;;;;;;;8.93;3.45;;;;;;;;;;4936018;29;20048;-72
2023/07/21 06:05:06;;;;;;;6.10;3.00;;;;;;;;;;4919161;29;20046;-73
2023/07/21 06:07:43;;;;;;;4.32;2.83;;;;;;;;;;4919000;29;20036;-72
2023/07/21 06:10:12;;;;;;;2.95;2.40;;;;;;;;;;4935981;29;20518;-71
2023/07/21 06:13:08;;;;;;;9.80;2.95;;;;;;;;;;4926158;29;20503;-71
2023/07/21 06:16:10;;;;;;;5.28;3.10;;;;;;;;;;4895600;29;20037;-70
2023/07/21 06:18:42;;;;;;;6.05;2.60;;;;;;;;;;4927908;29;20090;-72
2023/07/21 06:21:12;;;;;;;4.13;2.80;;;;;;;;;;4934455;29;20044;-72
2023/07/21 06:23:41;;;;;;;7.65;3.38;;;;;;;;;;4919151;29;20043;-72
2023/07/21 06:26:07;;;;;;;4.55;2.60;;;;;;;;;;4934435;29;20528;-72
2023/07/21 06:28:33;;;;;;;3.85;2.88;;;;;;;;;;4934432;29;20040;-71
2023/07/21 06:30:59;;;;;;;4.88;2.63;;;;;;;;;;4934470;29;20042;-73
2023/07/21 06:33:44;;;;;;;3.55;2.20;;;;;;;;;;4921024;29;20082;-72
2023/07/21 06:36:28;;;;;;;3.50;2.35;;;;;;;;;;4935268;29;20067;-73
2023/07/21 06:39:15;;;;;;;5.88;2.90;;;;;;;;;;4934910;29;20399;-71
2023/07/21 06:41:51;;;;;;;3.85;2.35;;;;;;;;;;4917232;29;20039;-71
2023/07/21 06:44:47;;;;;;;5.15;2.08;;;;;;;;;;4899657;29;20044;-71
2023/07/21 06:47:33;;;;;;;7.38;2.35;;;;;;;;;;4918621;29;20036;-71
2023/07/21 06:50:17;;;;;;;3.65;2.10;;;;;;;;;;4933856;29;20047;-73
2023/07/21 06:52:49;;;;;;;3.83;2.10;;;;;;;;;;4919067;29;20569;-73
2023/07/21 06:55:15;;;;;;;2.25;2.00;;;;;;;;;;4933519;29;20522;-72
2023/07/21 06:57:41;;;;;;;3.58;1.98;;;;;;;;;;4935161;29;20212;-71
2023/07/21 07:00:12;;;;;;;2.05;1.75;;;;;;;;;;4933720;29;20118;-70
2023/07/21 07:02:39;;;;;;;2.65;1.92;;;;;;;;;;4933898;29;20131;-71
2023/07/21 07:05:05;;;;;;;6.00;2.03;;;;;;;;;;4935069;29;20036;-71
2023/07/21 07:07:31;;;;;;;2.80;2.10;;;;;;;;;;4934867;29;20042;-72
2023/07/21 07:09:57;;;;;;;1.80;1.45;;;;;;;;;;4934971;29;20083;-71
2023/07/21 07:12:23;;;;;;;2.72;2.53;;;;;;;;;;4933416;29;20042;-72
2023/07/21 07:14:49;;;;;;;3.35;1.92;;;;;;;;;;4933681;29;20069;-72
2023/07/21 07:17:15;;;;;;;3.30;2.20;;;;;;;;;;4934927;29;20035;-72
2023/07/21 07:19:41;;;;;;;3.78;2.10;;;;;;;;;;4917834;29;20664;-73
2023/07/21 07:22:09;;;;;;;4.50;2.38;;;;;;;;;;4934550;29;20511;-72
2023/07/21 07:24:38;;;;;;;5.00;2.40;;;;;;;;;;4933684;29;20039;-72
2023/07/21 07:27:04;;;;;;;4.20;2.10;;;;;;;;;;4933438;29;20047;-72
2023/07/21 07:29:31;;;;;;;4.05;2.13;;;;;;;;;;4934364;29;20055;-71
2023/07/21 07:31:57;;;;;;;3.97;1.98;;;;;;;;;;4933382;29;20052;-70
2023/07/21 07:34:24;;;;;;;3.03;1.83;;;;;;;;;;4934451;29;20414;-71
2023/07/21 07:36:51;;;;;;;2.88;2.00;;;;;;;;;;4934622;29;20395;-70
2023/07/21 07:39:18;;;;;;;3.33;1.90;;;;;;;;;;4934332;29;20067;-71
2023/07/21 07:41:49;;;;;;;2.70;1.85;;;;;;;;;;4933114;29;20050;-71
2023/07/21 07:44:15;;;;;;;4.55;2.20;;;;;;;;;;4933979;29;20039;-72
2023/07/21 07:46:41;;;;;;;2.72;1.80;;;;;;;;;;4933121;29;20130;-73
2023/07/21 07:49:07;;;;;;;2.60;1.90;;;;;;;;;;4934241;29;20032;-72
2023/07/21 07:51:35;;;;;;;3.55;1.70;;;;;;;;;;4932697;29;20454;-72
2023/07/21 07:54:03;;;;;;;2.28;1.85;;;;;;;;;;4933038;29;20340;-72
2023/07/21 07:56:29;;;;;;;4.75;1.60;;;;;;;;;;4933794;29;20075;-71
2023/07/21 07:58:55;;;;;;;1.92;1.83;;;;;;;;;;4933959;29;20498;-72
2023/07/21 08:01:21;;;;;;;2.67;2.10;;;;;;;;;;4933683;29;20095;-72
2023/07/21 08:03:47;;;;;;;3.97;1.80;;;;;;;;;;4933830;29;20043;-72
2023/07/21 08:06:13;;;;;;;2.67;1.90;;;;;;;;;;4933721;29;20039;-70
2023/07/21 08:08:40;;;;;;;1.85;1.75;;;;;;;;;;4933856;29;20426;-72
2023/07/21 08:11:06;;;;;;;6.30;1.50;;;;;;;;;;4934000;29;20040;-72
2023/07/21 08:13:32;;;;;;;1.70;1.60;;;;;;;;;;4933475;29;20490;-72
2023/07/21 08:15:58;;;;;;;1.55;1.40;;;;;;;;;;4933844;29;20036;-73
2023/07/21 08:18:24;;;;;;;3.72;1.75;;;;;;;;;;4933666;29;20124;-71
2023/07/21 08:20:50;;;;;;;2.33;1.50;;;;;;;;;;4933888;29;20097;-73
2023/07/21 08:23:17;;;;;;;3.63;1.55;;;;;;;;;;4934137;29;20051;-72
2023/07/21 08:25:43;;;;;;;4.10;2.30;;;;;;;;;;4933785;29;20130;-71
2023/07/21 08:28:09;;;;;;;3.60;1.63;;;;;;;;;;4933515;29;20080;-72
2023/07/21 08:30:35;;;;;;;1.55;1.30;;;;;;;;;;4933212;29;20069;-70
2023/07/21 08:33:02;;;;;;;2.78;1.50;;;;;;;;;;4932049;29;20403;-71
2023/07/21 08:35:28;;;;;;;5.20;1.90;;;;;;;;;;4933338;29;20142;-70
2023/07/21 08:37:54;;;;;;;2.90;1.65;;;;;;;;;;4933386;29;20046;-72
2023/07/21 08:40:22;;;;;;;4.20;1.60;;;;;;;;;;4933313;29;20047;-73
2023/07/21 08:42:49;;;;;;;3.75;1.52;;;;;;;;;;4932107;29;20047;-72
2023/07/21 08:45:15;;;;;;;1.83;1.67;;;;;;;;;;4932432;29;20512;-73
2023/07/21 08:47:41;;;;;;;6.40;1.75;;;;;;;;;;4933814;29;20099;-72
2023/07/21 08:50:07;;;;;;;6.10;1.90;;;;;;;;;;4917031;29;20406;-72
2023/07/21 08:52:34;;;;;;;1.80;1.70;;;;;;;;;;4933020;29;20519;-72
2023/07/21 08:55:00;;;;;;;1.88;1.60;;;;;;;;;;4932966;29;20042;-72
2023/07/21 08:57:27;;;;;;;1.95;1.67;;;;;;;;;;4932955;29;20496;-71
2023/07/21 08:59:56;;;;;;;3.30;1.70;;;;;;;;;;4933208;29;20123;-72
2023/07/21 09:02:40;;;;;;;3.25;1.60;;;;;;;;;;4932929;29;20089;-72
2023/07/21 09:05:06;;;;;;;1.63;1.50;;;;;;;;;;4932706;29;20032;-71
2023/07/21 09:07:34;;;;;;;3.80;1.60;;;;;;;;;;4932687;29;20035;-72
2023/07/21 09:10:00;;;;;;;5.55;1.90;;;;;;;;;;4933094;29;20043;-72
2023/07/21 09:12:34;;;;;;;2.35;1.58;;;;;;;;;;4931433;29;20130;-73
2023/07/21 09:15:00;;;;;;;2.63;1.80;;;;;;;;;;4931798;29;20044;-72
2023/07/21 09:17:29;;;;;;;3.22;2.05;;;;;;;;;;4931101;29;20164;-70
2023/07/21 09:19:55;;;;;;;2.08;1.60;;;;;;;;;;4932828;29;20102;-73
2023/07/21 09:22:23;;;;;;;2.75;1.45;;;;;;;;;;4932381;29;20463;-71
2023/07/21 09:24:49;;;;;;;1.63;1.52;;;;;;;;;;4932593;29;20075;-71
2023/07/21 09:27:18;;;;;;;2.22;1.58;;;;;;;;;;4932620;29;20048;-72
2023/07/21 09:29:45;;;;;;;3.58;1.58;;;;;;;;;;4931564;29;20558;-72
2023/07/21 09:32:15;;;;;;;1.60;1.38;;;;;;;;;;4932791;29;20499;-72
2023/07/21 09:34:59;;;;;;;2.75;1.77;;;;;;;;;;4932522;29;20043;-72
2023/07/21 09:37:26;;;;;;;2.58;1.50;;;;;;;;;;4932427;29;20040;-72
2023/07/21 09:39:53;;;;;;;1.95;1.40;;;;;;;;;;4931216;29;20040;-71
2023/07/21 09:42:21;;;;;;;1.60;1.48;;;;;;;;;;4932332;29;20048;-72
2023/07/21 09:44:47;;;;;;;2.85;1.50;;;;;;;;;;4932403;29;20400;-72
2023/07/21 09:47:14;;;;;;;1.52;1.42;;;;;;;;;;4932781;29;20410;-72
2023/07/21 09:49:40;;;;;;;2.83;1.45;;;;;;;;;;4932449;29;20074;-71
2023/07/21 09:52:06;;;;;;;1.75;1.27;;;;;;;;;;4932604;29;20067;-72
2023/07/21 09:54:32;;;;;;;2.58;1.23;;;;;;;;;;4915423;29;20098;-71
2023/07/21 09:56:58;;;;;;;1.88;1.38;;;;;;;;;;4932426;29;20055;-73
2023/07/21 09:59:24;;;;;;;1.70;1.45;;;;;;;;;;4930965;29;20063;-71
2023/07/21 10:01:50;;;;;;;1.15;1.05;;;;;;;;;;4932234;29;20420;-73
2023/07/21 10:04:16;;;;;;;3.47;0.85;;;;;;;;;;4931203;29;20115;-72
2023/07/21 10:06:42;;;;;;;1.42;1.33;;;;;;;;;;4932408;29;20126;-72
2023/07/21 10:09:09;;;;;;;1.25;1.10;;;;;;;;;;4932415;29;20150;-71
2023/07/21 10:11:35;;;;;;;4.78;1.30;;;;;;;;;;4932170;29;20063;-72
2023/07/21 10:14:01;;;;;;;1.13;1.02;;;;;;;;;;4931087;29;20040;-72
2023/07/21 10:16:28;;;;;;;1.60;0.80;;;;;;;;;;4930938;29;20510;-71
2023/07/21 10:19:07;;;;;;;2.75;1.40;;;;;;;;;;4935398;29;20091;-71
2023/07/21 10:21:46;;;;;;;4.97;1.58;;;;;;;;;;4934359;29;20040;-73
2023/07/21 10:24:21;;;;;;;2.63;1.60;;;;;;;;;;4934603;29;20067;-72
2023/07/21 10:26:47;;;;;;;2.13;1.52;;;;;;;;;;4935868;29;20036;-72
2023/07/21 10:29:16;;;;;;;1.67;1.58;;;;;;;;;;4934414;29;20036;-70
2023/07/21 10:31:50;;;;;;;1.52;1.42;;;;;;;;;;4935603;29;20130;-72
2023/07/21 10:34:17;;;;;;;1.77;1.60;;;;;;;;;;4934458;29;20048;-72
2023/07/21 10:36:46;;;;;;;1.70;1.40;;;;;;;;;;4935378;29;20070;-73
2023/07/21 10:39:16;;;;;;;1.30;1.20;;;;;;;;;;4935513;29;20114;-72
2023/07/21 10:41:42;;;;;;;2.78;1.20;;;;;;;;;;4935301;29;20557;-72
2023/07/21 10:44:09;;;;;;;2.08;1.35;;;;;;;;;;4935409;29;20039;-71
2023/07/21 10:46:45;;;;;;;2.33;1.50;;;;;;;;;;4934421;29;20102;-72
2023/07/21 10:49:15;;;;;;;1.42;1.20;;;;;;;;;;4935689;29;20042;-71
2023/07/21 10:51:41;;;;;;;1.52;1.40;;;;;;;;;;4935154;29;20067;-72
2023/07/21 10:54:07;;;;;;;1.55;1.45;;;;;;;;;;4935433;29;20040;-71
2023/07/21 10:56:34;;;;;;;2.22;1.00;;;;;;;;;;4933683;29;20054;-72
2023/07/21 10:59:01;;;;;;;2.78;2.10;;;;;;;;;;4934008;29;20044;-71
2023/07/21 11:01:26;;;;;;;2.72;1.77;;;;;;;;;;4933889;29;20418;-71
2023/07/21 11:03:52;;;;;;;1.40;1.30;;;;;;;;;;4935418;29;20047;-72
2023/07/21 11:06:18;;;;;;;2.67;1.30;;;;;;;;;;4935439;29;20055;-72
2023/07/21 11:08:44;;;;;;;1.52;1.30;;;;;;;;;;4933573;29;20101;-72
2023/07/21 11:11:10;;;;;;;1.38;1.23;;;;;;;;;;4935093;29;20127;-73
2023/07/21 11:13:38;;;;;;;1.30;1.20;;;;;;;;;;4935126;29;20384;-72
2023/07/21 11:16:04;;;;;;;1.40;1.30;;;;;;;;;;4934862;29;20462;-72
2023/07/21 11:18:30;;;;;;;0.90;0.90;;;;;;;;;;4934500;29;20035;-72
2023/07/21 11:20:56;;;;;;;0.93;0.93;;;;;;;;;;4934867;29;20039;-73
2023/07/21 11:23:23;;;;;;;2.65;1.35;;;;;;;;;;4933738;29;20142;-73
2023/07/21 11:26:09;;;;;;;2.05;1.40;;;;;;;;;;4933246;29;20036;-71
2023/07/21 11:28:37;;;;;;;1.73;1.25;;;;;;;;;;4932732;29;20415;-71
2023/07/21 11:31:09;;;;;;;1.70;1.60;;;;;;;;;;4934589;29;20050;-70
2023/07/21 11:33:48;;;;;;;1.17;1.17;;;;;;;;;;4934196;29;20529;-72
2023/07/21 11:36:21;;;;;;;1.50;1.20;;;;;;;;;;4934613;29;20043;-71
2023/07/21 11:39:01;;;;;;;1.58;1.48;;;;;;;;;;4934103;29;20537;-71
2023/07/21 11:41:39;;;;;;;7.80;1.73;;;;;;;;;;4932981;29;20492;-70
2023/07/21 11:44:10;;;;;;;5.40;1.20;;;;;;;;;;4932979;29;20049;-71
2023/07/21 11:46:37;;;;;;;1.83;1.45;;;;;;;;;;4933171;29;20078;-71
2023/07/21 11:49:10;;;;;;;1.45;1.35;;;;;;;;;;4933303;29;20050;-72
2023/07/21 11:51:43;;;;;;;1.50;1.40;;;;;;;;;;4933983;29;20573;-73
2023/07/21 11:54:19;;;;;;;1.50;1.40;;;;;;;;;;4934881;29;20043;-73
2023/07/21 11:56:45;;;;;;;3.85;1.40;;;;;;;;;;4932590;29;20056;-71
2023/07/21 11:59:12;;;;;;;1.13;1.13;;;;;;;;;;4934027;29;20040;-72
2023/07/21 12:01:38;;;;;;;3.83;1.30;;;;;;;;;;4933819;29;20300;-72
2023/07/21 12:04:05;;;;;;;6.10;1.77;;;;;;;;;;4934000;29;20055;-73
2023/07/21 12:06:31;;;;;;;2.83;1.27;;;;;;;;;;4932768;29;20044;-72
2023/07/21 12:08:57;;;;;;;5.78;1.75;;;;;;;;;;4933892;29;20098;-72
2023/07/21 12:11:23;;;;;;;1.20;1.00;;;;;;;;;;4932696;29;20039;-71
2023/07/21 12:13:50;;;;;;;2.67;0.98;;;;;;;;;;4933897;29;20036;-72
2023/07/21 12:16:16;;;;;;;6.07;1.50;;;;;;;;;;4934892;29;20110;-71
2023/07/21 12:18:42;;;;;;;1.90;1.48;;;;;;;;;;4934800;29;20238;-71
2023/07/21 12:21:08;;;;;;;2.67;1.88;;;;;;;;;;4936867;29;20041;-73
2023/07/21 12:23:34;;;;;;;1.67;1.58;;;;;;;;;;4933332;29;20069;-72
2023/07/21 12:26:01;;;;;;;4.93;1.83;;;;;;;;;;4933918;29;20050;-72
2023/07/21 12:28:27;;;;;;;4.72;1.90;;;;;;;;;;4933796;29;20036;-72
2023/07/21 12:30:53;;;;;;;3.60;1.85;;;;;;;;;;4933685;29;20047;-72
2023/07/21 12:33:19;;;;;;;1.92;1.83;;;;;;;;;;4933546;29;20031;-70
2023/07/21 12:35:46;;;;;;;7.22;2.20;;;;;;;;;;4933369;29;20114;-70
2023/07/21 12:38:11;;;;;;;3.33;2.08;;;;;;;;;;4933439;29;20036;-72
2023/07/21 12:40:39;;;;;;;2.55;1.90;;;;;;;;;;4932721;29;20166;-72
2023/07/21 12:43:05;;;;;;;1.85;1.65;;;;;;;;;;4933265;29;20047;-70
2023/07/21 12:45:32;;;;;;;2.90;1.30;;;;;;;;;;4933235;29;20036;-73
2023/07/21 12:47:58;;;;;;;1.25;1.23;;;;;;;;;;4932010;29;20110;-71
2023/07/21 12:50:24;;;;;;;1.40;1.30;;;;;;;;;;4932180;29;20032;-71
2023/07/21 12:52:50;;;;;;;2.20;1.55;;;;;;;;;;4933168;29;20040;-71
2023/07/21 12:55:16;;;;;;;3.42;1.60;;;;;;;;;;4931689;29;20426;-71
2023/07/21 12:57:43;;;;;;;1.42;1.23;;;;;;;;;;4931955;29;20046;-72
2023/07/21 13:00:13;;;;;;;1.30;1.30;;;;;;;;;;4933069;29;20558;-71
2023/07/21 13:02:39;;;;;;;2.50;1.38;;;;;;;;;;4931657;29;20047;-71
2023/07/21 13:05:05;;;;;;;1.63;1.52;;;;;;;;;;4932967;29;20082;-71
2023/07/21 13:07:32;;;;;;;1.45;1.35;;;;;;;;;;4932876;29;20039;-72
2023/07/21 13:09:58;;;;;;;2.30;1.20;;;;;;;;;;4932994;29;20455;-71
2023/07/21 13:12:24;;;;;;;1.15;1.08;;;;;;;;;;4931993;29;20063;-72
2023/07/21 13:14:50;;;;;;;1.55;1.48;;;;;;;;;;4931396;29;20036;-72
2023/07/21 13:17:16;;;;;;;1.60;1.20;;;;;;;;;;4933626;29;20048;-70
2023/07/21 13:19:42;;;;;;;3.75;1.40;;;;;;;;;;4934460;29;20032;-72
2023/07/21 13:22:08;;;;;;;1.85;1.27;;;;;;;;;;4933600;29;20702;-71
2023/07/21 13:24:34;;;;;;;3.00;1.20;;;;;;;;;;4934841;29;20318;-72
2023/07/21 13:27:01;;;;;;;3.38;1.50;;;;;;;;;;4934648;29;20047;-71
2023/07/21 13:29:26;;;;;;;4.55;1.33;;;;;;;;;;4934097;29;20035;-73
2023/07/21 13:31:52;;;;;;;1.90;1.50;;;;;;;;;;4933783;29;20035;-72
2023/07/21 13:34:18;;;;;;;1.08;1.02;;;;;;;;;;4933030;29;20094;-71
2023/07/21 13:36:48;;;;;;;1.30;1.20;;;;;;;;;;4934030;29;20514;-71
2023/07/21 13:39:14;;;;;;;1.45;1.30;;;;;;;;;;4933343;29;20067;-71
2023/07/21 13:41:41;;;;;;;4.30;1.50;;;;;;;;;;4933655;29;20123;-72
2023/07/21 13:44:07;;;;;;;1.33;1.23;;;;;;;;;;4934656;29;20135;-72
2023/07/21 13:46:33;;;;;;;3.60;1.70;;;;;;;;;;4933940;29;20091;-70
2023/07/21 13:48:59;;;;;;;2.53;1.48;;;;;;;;;;4932505;29;20039;-72
2023/07/21 13:51:26;;;;;;;1.30;1.30;;;;;;;;;;4934688;29;20035;-72
2023/07/21 13:53:52;;;;;;;1.98;1.20;;;;;;;;;;4936028;29;20043;-72
2023/07/21 13:56:18;;;;;;;3.95;1.60;;;;;;;;;;4935712;29;20127;-72
2023/07/21 13:58:44;;;;;;;1.70;1.10;;;;;;;;;;4934810;29;20035;-70
2023/07/21 14:01:11;;;;;;;1.02;1.00;;;;;;;;;;4936408;29;20118;-72
2023/07/21 14:03:37;;;;;;;0.90;0.90;;;;;;;;;;4936863;29;20050;-71
2023/07/21 14:06:03;;;;;;;1.80;1.13;;;;;;;;;;4936989;29;20031;-71
2023/07/21 14:08:29;;;;;;;1.35;1.05;;;;;;;;;;4936431;29;20491;-71
2023/07/21 14:10:55;;;;;;;2.83;1.23;;;;;;;;;;4934835;29;20043;-73
2023/07/21 14:13:22;;;;;;;1.13;1.05;;;;;;;;;;4934853;29;20047;-71
2023/07/21 14:15:48;;;;;;;1.40;1.23;;;;;;;;;;4935833;29;20035;-71
2023/07/21 14:18:14;;;;;;;1.98;1.40;;;;;;;;;;4936014;29;20502;-72
2023/07/21 14:20:40;;;;;;;2.38;1.17;;;;;;;;;;4918878;29;20070;-72
2023/07/21 14:23:06;;;;;;;1.92;1.10;;;;;;;;;;4935685;29;20507;-72
2023/07/21 14:25:33;;;;;;;2.20;1.50;;;;;;;;;;4935654;29;20035;-72
2023/07/21 14:27:59;;;;;;;2.63;1.40;;;;;;;;;;4935080;29;20039;-72
2023/07/21 14:30:26;;;;;;;2.35;1.00;;;;;;;;;;4935547;29;20055;-72
2023/07/21 14:32:52;;;;;;;1.15;1.05;;;;;;;;;;4935237;29;20470;-71
2023/07/21 14:35:20;;;;;;;3.50;1.30;;;;;;;;;;4936137;29;20044;-74
2023/07/21 14:37:46;;;;;;;1.20;1.20;;;;;;;;;;4934747;29;20038;-72
2023/07/21 14:40:14;;;;;;;1.20;1.20;;;;;;;;;;4935244;29;20039;-73
2023/07/21 14:42:40;;;;;;;1.70;0.93;;;;;;;;;;4935086;29;20134;-71
2023/07/21 14:45:07;;;;;;;1.70;1.10;;;;;;;;;;4934867;29;20050;-71
2023/07/21 14:47:33;;;;;;;4.38;1.33;;;;;;;;;;4935325;29;20043;-72
2023/07/21 14:49:59;;;;;;;9.55;2.55;;;;;;;;;;4933806;29;20039;-70